sensor_id;sensor_type;location;lat;lon;timestamp;P1;durP1;ratioP1;P2;durP2;ratioP2
50433;SDS011;36361;38.954;-9.002;2023-09-30T00:00:49;3.40;;;1.10;;
50433;SDS011;36361;38.954;-9.002;2023-09-30T00:01:50;2.80;;;1.23;;
50433;SDS011;36361;38.954;-9.002;2023-09-30T00:02:52;2.47;;;1.20;;
50433;SDS011;36361;38.954;-9.002;2023-09-30T00:03:53;2.08;;;1.20;;
50433;SDS011;36361;38.954;-9.002;2023-09-30T00:04:53;2.33;;;1.00;;
50433;SDS011;36361;38.954;-9.002;2023-09-30T00:05:54;2.58;;;1.17;;
50433;SDS011;36361;38.954;-9.002;2023-09-30T00:06:55;3.92;;;1.40;;
50433;SDS011;36361;38.954;-9.002;2023-09-30T00:07:56;2.95;;;1.20;;
50433;SDS011;36361;38.954;-9.002;2023-09-30T00:08:56;3.83;;;1.48;;
50433;SDS011;36361;38.954;-9.002;2023-09-30T00:09:57;8.05;;;1.52;;
50433;SDS011;36361;38.954;-9.002;2023-09-30T00:10:58;3.00;;;1.20;;
50433;SDS011;36361;38.954;-9.002;2023-09-30T00:11:59;3.30;;;1.15;;
50433;SDS011;36361;38.954;-9.002;2023-09-30T00:13:00;2.85;;;1.23;;
50433;SDS011;36361;38.954;-9.002;2023-09-30T00:14:01;3.97;;;1.40;;
50433;SDS011;36361;38.954;-9.002;2023-09-30T00:15:02;3.13;;;1.00;;
50433;SDS011;36361;38.954;-9.002;2023-09-30T00:16:04;3.00;;;1.33;;
50433;SDS011;36361;38.954;-9.002;2023-09-30T00:17:06;4.07;;;1.25;;
50433;SDS011;36361;38.954;-9.002;2023-09-30T00:18:06;3.92;;;1.27;;
50433;SDS011;36361;38.954;-9.002;2023-09-30T00:19:07;5.55;;;1.60;;
50433;SDS011;36361;38.954;-9.002;2023-09-30T00:20:08;5.60;;;1.40;;
50433;SDS011;36361;38.954;-9.002;2023-09-30T00:21:09;2.95;;;1.30;;
50433;SDS011;36361;38.954;-9.002;2023-09-30T00:22:10;1.10;;;0.80;;
50433;SDS011;36361;38.954;-9.002;2023-09-30T00:23:14;2.42;;;1.27;;
50433;SDS011;36361;38.954;-9.002;2023-09-30T00:24:21;2.88;;;1.30;;
50433;SDS011;36361;38.954;-9.002;2023-09-30T00:25:25;2.13;;;1.00;;
50433;SDS011;36361;38.954;-9.002;2023-09-30T00:26:28;2.92;;;1.25;;
50433;SDS011;36361;38.954;-9.002;2023-09-30T00:27:32;3.78;;;1.55;;
50433;SDS011;36361;38.954;-9.002;2023-09-30T00:28:53;2.67;;;1.15;;
50433;SDS011;36361;38.954;-9.002;2023-09-30T00:29:53;2.80;;;1.33;;
50433;SDS011;36361;38.954;-9.002;2023-09-30T00:30:54;2.58;;;1.10;;
50433;SDS011;36361;38.954;-9.002;2023-09-30T00:31:55;2.15;;;1.20;;
50433;SDS011;36361;38.954;-9.002;2023-09-30T00:32:56;2.35;;;1.35;;
50433;SDS011;36361;38.954;-9.002;2023-09-30T00:33:57;3.47;;;1.50;;
50433;SDS011;36361;38.954;-9.002;2023-09-30T00:35:00;2.00;;;1.05;;
50433;SDS011;36361;38.954;-9.002;2023-09-30T00:36:08;2.30;;;1.27;;
50433;SDS011;36361;38.954;-9.002;2023-09-30T00:37:09;2.15;;;1.20;;
50433;SDS011;36361;38.954;-9.002;2023-09-30T00:38:10;9.15;;;1.50;;
50433;SDS011;36361;38.954;-9.002;2023-09-30T00:39:15;2.90;;;1.20;;
50433;SDS011;36361;38.954;-9.002;2023-09-30T00:40:17;2.28;;;1.15;;
50433;SDS011;36361;38.954;-9.002;2023-09-30T00:41:18;2.15;;;0.95;;
50433;SDS011;36361;38.954;-9.002;2023-09-30T00:42:18;2.05;;;1.15;;
50433;SDS011;36361;38.954;-9.002;2023-09-30T00:43:20;5.22;;;1.50;;
50433;SDS011;36361;38.954;-9.002;2023-09-30T00:44:21;2.67;;;1.20;;
50433;SDS011;36361;38.954;-9.002;2023-09-30T00:45:22;4.30;;;1.50;;
50433;SDS011;36361;38.954;-9.002;2023-09-30T00:47:23;7.03;;;1.98;;
50433;SDS011;36361;38.954;-9.002;2023-09-30T00:48:26;3.42;;;1.85;;
50433;SDS011;36361;38.954;-9.002;2023-09-30T00:49:27;3.45;;;1.50;;
50433;SDS011;36361;38.954;-9.002;2023-09-30T00:50:29;2.25;;;1.10;;
50433;SDS011;36361;38.954;-9.002;2023-09-30T00:51:30;3.78;;;1.73;;
50433;SDS011;36361;38.954;-9.002;2023-09-30T00:52:33;3.05;;;1.60;;
50433;SDS011;36361;38.954;-9.002;2023-09-30T00:53:36;4.93;;;1.80;;
50433;SDS011;36361;38.954;-9.002;2023-09-30T00:54:37;7.72;;;2.45;;
50433;SDS011;36361;38.954;-9.002;2023-09-30T00:55:39;4.80;;;1.52;;
50433;SDS011;36361;38.954;-9.002;2023-09-30T00:56:43;4.28;;;1.52;;
50433;SDS011;36361;38.954;-9.002;2023-09-30T00:57:46;5.20;;;1.75;;
50433;SDS011;36361;38.954;-9.002;2023-09-30T00:58:47;4.35;;;1.60;;
50433;SDS011;36361;38.954;-9.002;2023-09-30T00:59:48;4.20;;;2.17;;
50433;SDS011;36361;38.954;-9.002;2023-09-30T01:00:51;3.95;;;1.48;;
50433;SDS011;36361;38.954;-9.002;2023-09-30T01:01:53;3.95;;;1.52;;
50433;SDS011;36361;38.954;-9.002;2023-09-30T01:02:55;3.65;;;1.67;;
50433;SDS011;36361;38.954;-9.002;2023-09-30T01:03:57;5.47;;;1.67;;
50433;SDS011;36361;38.954;-9.002;2023-09-30T01:04:58;1.95;;;1.15;;
50433;SDS011;36361;38.954;-9.002;2023-09-30T01:05:59;3.70;;;1.20;;
50433;SDS011;36361;38.954;-9.002;2023-09-30T01:07:01;3.75;;;1.65;;
50433;SDS011;36361;38.954;-9.002;2023-09-30T01:08:02;2.92;;;1.45;;
50433;SDS011;36361;38.954;-9.002;2023-09-30T01:09:03;2.67;;;1.30;;
50433;SDS011;36361;38.954;-9.002;2023-09-30T01:10:04;3.03;;;1.38;;
50433;SDS011;36361;38.954;-9.002;2023-09-30T01:11:05;2.53;;;1.10;;
50433;SDS011;36361;38.954;-9.002;2023-09-30T01:12:13;2.60;;;1.00;;
50433;SDS011;36361;38.954;-9.002;2023-09-30T01:13:14;2.35;;;1.30;;
50433;SDS011;36361;38.954;-9.002;2023-09-30T01:14:30;4.82;;;1.58;;
50433;SDS011;36361;38.954;-9.002;2023-09-30T01:15:31;2.83;;;1.30;;
50433;SDS011;36361;38.954;-9.002;2023-09-30T01:16:32;2.88;;;1.27;;
50433;SDS011;36361;38.954;-9.002;2023-09-30T01:17:35;6.70;;;2.03;;
50433;SDS011;36361;38.954;-9.002;2023-09-30T01:18:37;2.80;;;1.70;;
50433;SDS011;36361;38.954;-9.002;2023-09-30T01:19:39;3.92;;;1.83;;
50433;SDS011;36361;38.954;-9.002;2023-09-30T01:20:42;3.63;;;1.52;;
50433;SDS011;36361;38.954;-9.002;2023-09-30T01:21:43;2.50;;;1.42;;
50433;SDS011;36361;38.954;-9.002;2023-09-30T01:22:48;5.32;;;1.58;;
50433;SDS011;36361;38.954;-9.002;2023-09-30T01:23:52;4.32;;;1.85;;
50433;SDS011;36361;38.954;-9.002;2023-09-30T01:24:53;6.38;;;2.05;;
50433;SDS011;36361;38.954;-9.002;2023-09-30T01:25:54;4.15;;;1.73;;
50433;SDS011;36361;38.954;-9.002;2023-09-30T01:26:55;3.45;;;1.90;;
50433;SDS011;36361;38.954;-9.002;2023-09-30T01:27:56;5.88;;;2.05;;
50433;SDS011;36361;38.954;-9.002;2023-09-30T01:29:00;5.43;;;1.90;;
50433;SDS011;36361;38.954;-9.002;2023-09-30T01:30:00;5.30;;;2.10;;
50433;SDS011;36361;38.954;-9.002;2023-09-30T01:31:01;5.88;;;2.05;;
50433;SDS011;36361;38.954;-9.002;2023-09-30T01:32:02;4.18;;;2.05;;
50433;SDS011;36361;38.954;-9.002;2023-09-30T01:33:07;6.35;;;1.90;;
50433;SDS011;36361;38.954;-9.002;2023-09-30T01:34:08;3.97;;;2.28;;
50433;SDS011;36361;38.954;-9.002;2023-09-30T01:35:11;5.20;;;1.80;;
50433;SDS011;36361;38.954;-9.002;2023-09-30T01:36:13;6.03;;;1.80;;
50433;SDS011;36361;38.954;-9.002;2023-09-30T01:37:13;3.90;;;2.03;;
50433;SDS011;36361;38.954;-9.002;2023-09-30T01:38:14;6.13;;;2.00;;
50433;SDS011;36361;38.954;-9.002;2023-09-30T01:39:15;4.80;;;1.90;;
50433;SDS011;36361;38.954;-9.002;2023-09-30T01:40:16;2.72;;;1.60;;
50433;SDS011;36361;38.954;-9.002;2023-09-30T01:41:18;4.20;;;2.03;;
50433;SDS011;36361;38.954;-9.002;2023-09-30T01:42:18;3.80;;;2.20;;
50433;SDS011;36361;38.954;-9.002;2023-09-30T01:43:20;5.68;;;1.98;;
50433;SDS011;36361;38.954;-9.002;2023-09-30T01:44:20;5.38;;;2.08;;
50433;SDS011;36361;38.954;-9.002;2023-09-30T01:45:21;2.70;;;1.30;;
50433;SDS011;36361;38.954;-9.002;2023-09-30T01:46:22;6.28;;;1.90;;
50433;SDS011;36361;38.954;-9.002;2023-09-30T01:47:23;6.30;;;1.65;;
50433;SDS011;36361;38.954;-9.002;2023-09-30T01:48:23;7.00;;;2.35;;
50433;SDS011;36361;38.954;-9.002;2023-09-30T01:49:24;5.85;;;2.53;;
50433;SDS011;36361;38.954;-9.002;2023-09-30T01:50:26;3.53;;;1.70;;
50433;SDS011;36361;38.954;-9.002;2023-09-30T01:51:27;4.40;;;1.98;;
50433;SDS011;36361;38.954;-9.002;2023-09-30T01:52:31;6.53;;;2.00;;
50433;SDS011;36361;38.954;-9.002;2023-09-30T01:53:32;3.90;;;2.00;;
50433;SDS011;36361;38.954;-9.002;2023-09-30T01:54:33;4.15;;;1.92;;
50433;SDS011;36361;38.954;-9.002;2023-09-30T01:55:35;4.63;;;1.75;;
50433;SDS011;36361;38.954;-9.002;2023-09-30T01:56:38;3.30;;;1.73;;
50433;SDS011;36361;38.954;-9.002;2023-09-30T01:57:39;6.68;;;1.95;;
50433;SDS011;36361;38.954;-9.002;2023-09-30T01:58:40;4.65;;;2.05;;
50433;SDS011;36361;38.954;-9.002;2023-09-30T01:59:40;3.92;;;1.90;;
50433;SDS011;36361;38.954;-9.002;2023-09-30T02:00:41;4.93;;;2.03;;
50433;SDS011;36361;38.954;-9.002;2023-09-30T02:01:42;3.38;;;1.85;;
50433;SDS011;36361;38.954;-9.002;2023-09-30T02:02:42;2.97;;;1.77;;
50433;SDS011;36361;38.954;-9.002;2023-09-30T02:03:44;4.63;;;2.17;;
50433;SDS011;36361;38.954;-9.002;2023-09-30T02:04:45;2.78;;;1.40;;
50433;SDS011;36361;38.954;-9.002;2023-09-30T02:05:45;4.60;;;2.08;;
50433;SDS011;36361;38.954;-9.002;2023-09-30T02:06:46;5.55;;;2.38;;
50433;SDS011;36361;38.954;-9.002;2023-09-30T02:07:47;4.68;;;1.92;;
50433;SDS011;36361;38.954;-9.002;2023-09-30T02:08:47;3.80;;;1.67;;
50433;SDS011;36361;38.954;-9.002;2023-09-30T02:09:48;2.70;;;1.05;;
50433;SDS011;36361;38.954;-9.002;2023-09-30T02:10:49;5.07;;;2.47;;
50433;SDS011;36361;38.954;-9.002;2023-09-30T02:11:54;4.72;;;2.40;;
50433;SDS011;36361;38.954;-9.002;2023-09-30T02:12:55;4.10;;;1.80;;
50433;SDS011;36361;38.954;-9.002;2023-09-30T02:13:56;4.15;;;2.10;;
50433;SDS011;36361;38.954;-9.002;2023-09-30T02:14:58;3.55;;;1.83;;
50433;SDS011;36361;38.954;-9.002;2023-09-30T02:15:59;4.97;;;2.50;;
50433;SDS011;36361;38.954;-9.002;2023-09-30T02:17:05;3.88;;;1.58;;
50433;SDS011;36361;38.954;-9.002;2023-09-30T02:18:06;3.88;;;2.00;;
50433;SDS011;36361;38.954;-9.002;2023-09-30T02:19:07;6.20;;;2.03;;
50433;SDS011;36361;38.954;-9.002;2023-09-30T02:20:11;7.65;;;1.92;;
50433;SDS011;36361;38.954;-9.002;2023-09-30T02:21:19;4.43;;;2.13;;
50433;SDS011;36361;38.954;-9.002;2023-09-30T02:22:22;2.67;;;1.75;;
50433;SDS011;36361;38.954;-9.002;2023-09-30T02:23:25;2.95;;;1.55;;
50433;SDS011;36361;38.954;-9.002;2023-09-30T02:24:28;5.35;;;2.17;;
50433;SDS011;36361;38.954;-9.002;2023-09-30T02:25:29;6.95;;;2.63;;
50433;SDS011;36361;38.954;-9.002;2023-09-30T02:26:30;3.72;;;1.98;;
50433;SDS011;36361;38.954;-9.002;2023-09-30T02:27:31;6.43;;;2.45;;
50433;SDS011;36361;38.954;-9.002;2023-09-30T02:28:35;6.57;;;2.47;;
50433;SDS011;36361;38.954;-9.002;2023-09-30T02:29:35;3.08;;;1.75;;
50433;SDS011;36361;38.954;-9.002;2023-09-30T02:30:36;8.65;;;2.00;;
50433;SDS011;36361;38.954;-9.002;2023-09-30T02:31:37;4.40;;;1.88;;
50433;SDS011;36361;38.954;-9.002;2023-09-30T02:32:39;3.90;;;1.40;;
50433;SDS011;36361;38.954;-9.002;2023-09-30T02:33:40;2.47;;;1.48;;
50433;SDS011;36361;38.954;-9.002;2023-09-30T02:34:41;5.53;;;1.48;;
50433;SDS011;36361;38.954;-9.002;2023-09-30T02:35:45;4.45;;;2.05;;
50433;SDS011;36361;38.954;-9.002;2023-09-30T02:36:47;5.82;;;2.30;;
50433;SDS011;36361;38.954;-9.002;2023-09-30T02:37:47;6.28;;;2.83;;
50433;SDS011;36361;38.954;-9.002;2023-09-30T02:38:49;4.53;;;2.25;;
50433;SDS011;36361;38.954;-9.002;2023-09-30T02:39:50;6.43;;;2.05;;
50433;SDS011;36361;38.954;-9.002;2023-09-30T02:40:51;4.97;;;2.22;;
50433;SDS011;36361;38.954;-9.002;2023-09-30T02:41:52;3.30;;;1.85;;
50433;SDS011;36361;38.954;-9.002;2023-09-30T02:42:53;5.90;;;2.05;;
50433;SDS011;36361;38.954;-9.002;2023-09-30T02:43:54;6.03;;;2.10;;
50433;SDS011;36361;38.954;-9.002;2023-09-30T02:44:54;4.50;;;2.38;;
50433;SDS011;36361;38.954;-9.002;2023-09-30T02:45:55;4.90;;;2.28;;
50433;SDS011;36361;38.954;-9.002;2023-09-30T02:46:59;2.80;;;1.42;;
50433;SDS011;36361;38.954;-9.002;2023-09-30T02:47:59;5.57;;;1.75;;
50433;SDS011;36361;38.954;-9.002;2023-09-30T02:49:01;5.47;;;2.22;;
50433;SDS011;36361;38.954;-9.002;2023-09-30T02:50:05;4.78;;;2.15;;
50433;SDS011;36361;38.954;-9.002;2023-09-30T02:51:16;5.65;;;2.05;;
50433;SDS011;36361;38.954;-9.002;2023-09-30T02:52:17;4.60;;;1.83;;
50433;SDS011;36361;38.954;-9.002;2023-09-30T02:53:18;3.20;;;2.03;;
50433;SDS011;36361;38.954;-9.002;2023-09-30T02:54:18;6.32;;;2.38;;
50433;SDS011;36361;38.954;-9.002;2023-09-30T02:55:19;3.30;;;1.83;;
50433;SDS011;36361;38.954;-9.002;2023-09-30T02:56:20;5.30;;;2.00;;
50433;SDS011;36361;38.954;-9.002;2023-09-30T02:57:23;6.30;;;2.53;;
50433;SDS011;36361;38.954;-9.002;2023-09-30T02:58:24;2.65;;;1.88;;
50433;SDS011;36361;38.954;-9.002;2023-09-30T02:59:25;6.40;;;2.30;;
50433;SDS011;36361;38.954;-9.002;2023-09-30T03:00:27;3.80;;;2.13;;
50433;SDS011;36361;38.954;-9.002;2023-09-30T03:01:33;5.25;;;2.65;;
50433;SDS011;36361;38.954;-9.002;2023-09-30T03:02:34;4.53;;;2.47;;
50433;SDS011;36361;38.954;-9.002;2023-09-30T03:03:35;7.90;;;2.20;;
50433;SDS011;36361;38.954;-9.002;2023-09-30T03:04:37;7.72;;;2.38;;
50433;SDS011;36361;38.954;-9.002;2023-09-30T03:05:41;4.43;;;2.33;;
50433;SDS011;36361;38.954;-9.002;2023-09-30T03:06:42;5.95;;;2.38;;
50433;SDS011;36361;38.954;-9.002;2023-09-30T03:07:45;5.53;;;2.20;;
50433;SDS011;36361;38.954;-9.002;2023-09-30T03:08:46;5.97;;;2.38;;
50433;SDS011;36361;38.954;-9.002;2023-09-30T03:09:47;5.10;;;2.15;;
50433;SDS011;36361;38.954;-9.002;2023-09-30T03:10:47;6.10;;;1.98;;
50433;SDS011;36361;38.954;-9.002;2023-09-30T03:11:48;6.78;;;2.22;;
50433;SDS011;36361;38.954;-9.002;2023-09-30T03:12:50;4.60;;;2.05;;
50433;SDS011;36361;38.954;-9.002;2023-09-30T03:13:51;3.25;;;2.10;;
50433;SDS011;36361;38.954;-9.002;2023-09-30T03:14:52;4.32;;;2.40;;
50433;SDS011;36361;38.954;-9.002;2023-09-30T03:15:53;3.10;;;1.38;;
50433;SDS011;36361;38.954;-9.002;2023-09-30T03:16:54;5.55;;;2.63;;
50433;SDS011;36361;38.954;-9.002;2023-09-30T03:17:54;4.30;;;2.10;;
50433;SDS011;36361;38.954;-9.002;2023-09-30T03:18:55;3.72;;;1.90;;
50433;SDS011;36361;38.954;-9.002;2023-09-30T03:19:56;6.90;;;2.45;;
50433;SDS011;36361;38.954;-9.002;2023-09-30T03:21:00;5.75;;;2.10;;
50433;SDS011;36361;38.954;-9.002;2023-09-30T03:22:08;6.65;;;2.70;;
50433;SDS011;36361;38.954;-9.002;2023-09-30T03:23:11;3.35;;;2.20;;
50433;SDS011;36361;38.954;-9.002;2023-09-30T03:24:14;5.80;;;2.50;;
50433;SDS011;36361;38.954;-9.002;2023-09-30T03:25:16;4.90;;;2.50;;
50433;SDS011;36361;38.954;-9.002;2023-09-30T03:26:17;5.22;;;2.35;;
50433;SDS011;36361;38.954;-9.002;2023-09-30T03:27:18;5.30;;;2.60;;
50433;SDS011;36361;38.954;-9.002;2023-09-30T03:28:19;5.35;;;1.95;;
50433;SDS011;36361;38.954;-9.002;2023-09-30T03:29:19;4.00;;;1.80;;
50433;SDS011;36361;38.954;-9.002;2023-09-30T03:30:20;5.60;;;2.47;;
50433;SDS011;36361;38.954;-9.002;2023-09-30T03:31:21;5.65;;;2.10;;
50433;SDS011;36361;38.954;-9.002;2023-09-30T03:32:22;5.93;;;2.00;;
50433;SDS011;36361;38.954;-9.002;2023-09-30T03:33:25;5.85;;;2.60;;
50433;SDS011;36361;38.954;-9.002;2023-09-30T03:34:26;4.72;;;1.92;;
50433;SDS011;36361;38.954;-9.002;2023-09-30T03:35:28;4.88;;;2.80;;
50433;SDS011;36361;38.954;-9.002;2023-09-30T03:36:38;7.53;;;2.40;;
50433;SDS011;36361;38.954;-9.002;2023-09-30T03:37:41;5.10;;;2.08;;
50433;SDS011;36361;38.954;-9.002;2023-09-30T03:38:42;5.07;;;2.67;;
50433;SDS011;36361;38.954;-9.002;2023-09-30T03:39:42;6.70;;;2.60;;
50433;SDS011;36361;38.954;-9.002;2023-09-30T03:40:43;6.45;;;2.55;;
50433;SDS011;36361;38.954;-9.002;2023-09-30T03:41:47;4.80;;;2.83;;
50433;SDS011;36361;38.954;-9.002;2023-09-30T03:42:51;6.20;;;3.38;;
50433;SDS011;36361;38.954;-9.002;2023-09-30T03:43:52;6.25;;;2.60;;
50433;SDS011;36361;38.954;-9.002;2023-09-30T03:44:54;4.85;;;2.40;;
50433;SDS011;36361;38.954;-9.002;2023-09-30T03:45:54;7.28;;;2.60;;
50433;SDS011;36361;38.954;-9.002;2023-09-30T03:46:57;6.18;;;2.53;;
50433;SDS011;36361;38.954;-9.002;2023-09-30T03:47:59;11.18;;;2.80;;
50433;SDS011;36361;38.954;-9.002;2023-09-30T03:49:02;7.78;;;3.05;;
50433;SDS011;36361;38.954;-9.002;2023-09-30T03:50:03;6.85;;;2.60;;
50433;SDS011;36361;38.954;-9.002;2023-09-30T03:51:22;7.13;;;2.55;;
50433;SDS011;36361;38.954;-9.002;2023-09-30T03:52:25;8.43;;;3.15;;
50433;SDS011;36361;38.954;-9.002;2023-09-30T03:53:26;5.95;;;2.40;;
50433;SDS011;36361;38.954;-9.002;2023-09-30T03:54:27;6.10;;;2.92;;
50433;SDS011;36361;38.954;-9.002;2023-09-30T03:55:28;7.45;;;2.67;;
50433;SDS011;36361;38.954;-9.002;2023-09-30T03:56:30;4.93;;;2.70;;
50433;SDS011;36361;38.954;-9.002;2023-09-30T03:57:33;5.90;;;2.53;;
50433;SDS011;36361;38.954;-9.002;2023-09-30T03:58:34;5.10;;;2.65;;
50433;SDS011;36361;38.954;-9.002;2023-09-30T03:59:36;5.65;;;2.70;;
50433;SDS011;36361;38.954;-9.002;2023-09-30T04:00:37;4.47;;;2.47;;
50433;SDS011;36361;38.954;-9.002;2023-09-30T04:01:37;4.22;;;2.30;;
50433;SDS011;36361;38.954;-9.002;2023-09-30T04:02:41;6.30;;;3.00;;
50433;SDS011;36361;38.954;-9.002;2023-09-30T04:03:43;4.88;;;2.88;;
50433;SDS011;36361;38.954;-9.002;2023-09-30T04:04:43;5.80;;;2.50;;
50433;SDS011;36361;38.954;-9.002;2023-09-30T04:05:44;7.18;;;2.60;;
50433;SDS011;36361;38.954;-9.002;2023-09-30T04:06:46;7.10;;;2.83;;
50433;SDS011;36361;38.954;-9.002;2023-09-30T04:07:47;5.40;;;2.72;;
50433;SDS011;36361;38.954;-9.002;2023-09-30T04:08:48;5.60;;;2.65;;
50433;SDS011;36361;38.954;-9.002;2023-09-30T04:09:49;7.72;;;2.80;;
50433;SDS011;36361;38.954;-9.002;2023-09-30T04:10:52;7.50;;;3.00;;
50433;SDS011;36361;38.954;-9.002;2023-09-30T04:11:57;4.55;;;2.90;;
50433;SDS011;36361;38.954;-9.002;2023-09-30T04:12:58;6.70;;;2.80;;
50433;SDS011;36361;38.954;-9.002;2023-09-30T04:14:01;5.70;;;2.75;;
50433;SDS011;36361;38.954;-9.002;2023-09-30T04:15:02;7.63;;;2.85;;
50433;SDS011;36361;38.954;-9.002;2023-09-30T04:16:06;4.30;;;2.45;;
50433;SDS011;36361;38.954;-9.002;2023-09-30T04:17:07;7.32;;;2.72;;
50433;SDS011;36361;38.954;-9.002;2023-09-30T04:18:09;6.25;;;2.65;;
50433;SDS011;36361;38.954;-9.002;2023-09-30T04:19:11;4.60;;;2.53;;
50433;SDS011;36361;38.954;-9.002;2023-09-30T04:20:14;6.95;;;2.75;;
50433;SDS011;36361;38.954;-9.002;2023-09-30T04:21:21;6.20;;;3.22;;
50433;SDS011;36361;38.954;-9.002;2023-09-30T04:22:22;7.75;;;3.10;;
50433;SDS011;36361;38.954;-9.002;2023-09-30T04:23:25;6.20;;;2.90;;
50433;SDS011;36361;38.954;-9.002;2023-09-30T04:24:26;5.55;;;3.03;;
50433;SDS011;36361;38.954;-9.002;2023-09-30T04:25:28;7.57;;;2.60;;
50433;SDS011;36361;38.954;-9.002;2023-09-30T04:26:30;4.80;;;2.60;;
50433;SDS011;36361;38.954;-9.002;2023-09-30T04:27:31;6.30;;;2.53;;
50433;SDS011;36361;38.954;-9.002;2023-09-30T04:28:31;8.13;;;2.90;;
50433;SDS011;36361;38.954;-9.002;2023-09-30T04:29:34;5.32;;;2.80;;
50433;SDS011;36361;38.954;-9.002;2023-09-30T04:30:35;6.03;;;2.90;;
50433;SDS011;36361;38.954;-9.002;2023-09-30T04:31:37;6.43;;;2.80;;
50433;SDS011;36361;38.954;-9.002;2023-09-30T04:32:39;7.78;;;2.80;;
50433;SDS011;36361;38.954;-9.002;2023-09-30T04:33:40;7.18;;;2.90;;
50433;SDS011;36361;38.954;-9.002;2023-09-30T04:34:40;6.63;;;2.97;;
50433;SDS011;36361;38.954;-9.002;2023-09-30T04:35:41;5.97;;;2.47;;
50433;SDS011;36361;38.954;-9.002;2023-09-30T04:36:42;6.05;;;2.80;;
50433;SDS011;36361;38.954;-9.002;2023-09-30T04:37:42;7.95;;;2.50;;
50433;SDS011;36361;38.954;-9.002;2023-09-30T04:38:43;8.02;;;2.97;;
50433;SDS011;36361;38.954;-9.002;2023-09-30T04:39:44;5.13;;;3.08;;
50433;SDS011;36361;38.954;-9.002;2023-09-30T04:40:45;7.95;;;2.70;;
50433;SDS011;36361;38.954;-9.002;2023-09-30T04:41:48;4.50;;;2.30;;
50433;SDS011;36361;38.954;-9.002;2023-09-30T04:42:49;4.97;;;2.35;;
50433;SDS011;36361;38.954;-9.002;2023-09-30T04:43:49;8.43;;;2.92;;
50433;SDS011;36361;38.954;-9.002;2023-09-30T04:44:51;6.43;;;2.70;;
50433;SDS011;36361;38.954;-9.002;2023-09-30T04:45:52;6.25;;;2.70;;
50433;SDS011;36361;38.954;-9.002;2023-09-30T04:46:56;6.13;;;3.30;;
50433;SDS011;36361;38.954;-9.002;2023-09-30T04:47:57;5.80;;;2.95;;
50433;SDS011;36361;38.954;-9.002;2023-09-30T04:48:58;8.20;;;3.10;;
50433;SDS011;36361;38.954;-9.002;2023-09-30T04:49:58;6.88;;;2.67;;
50433;SDS011;36361;38.954;-9.002;2023-09-30T04:50:59;5.07;;;2.75;;
50433;SDS011;36361;38.954;-9.002;2023-09-30T04:52:00;5.28;;;2.70;;
50433;SDS011;36361;38.954;-9.002;2023-09-30T04:53:01;5.28;;;2.90;;
50433;SDS011;36361;38.954;-9.002;2023-09-30T04:54:02;6.47;;;2.67;;
50433;SDS011;36361;38.954;-9.002;2023-09-30T04:55:03;6.38;;;2.80;;
50433;SDS011;36361;38.954;-9.002;2023-09-30T04:56:04;7.32;;;3.20;;
50433;SDS011;36361;38.954;-9.002;2023-09-30T04:57:05;5.22;;;2.80;;
50433;SDS011;36361;38.954;-9.002;2023-09-30T04:58:07;5.30;;;2.70;;
50433;SDS011;36361;38.954;-9.002;2023-09-30T04:59:08;4.95;;;2.42;;
50433;SDS011;36361;38.954;-9.002;2023-09-30T05:00:09;6.65;;;2.85;;
50433;SDS011;36361;38.954;-9.002;2023-09-30T05:01:11;4.65;;;2.63;;
50433;SDS011;36361;38.954;-9.002;2023-09-30T05:02:12;6.13;;;3.15;;
50433;SDS011;36361;38.954;-9.002;2023-09-30T05:03:15;6.57;;;2.78;;
50433;SDS011;36361;38.954;-9.002;2023-09-30T05:04:16;6.43;;;2.90;;
50433;SDS011;36361;38.954;-9.002;2023-09-30T05:05:17;6.00;;;3.13;;
50433;SDS011;36361;38.954;-9.002;2023-09-30T05:06:19;5.63;;;2.67;;
50433;SDS011;36361;38.954;-9.002;2023-09-30T05:07:21;7.43;;;2.83;;
50433;SDS011;36361;38.954;-9.002;2023-09-30T05:08:23;4.55;;;2.60;;
50433;SDS011;36361;38.954;-9.002;2023-09-30T05:09:24;5.65;;;3.20;;
50433;SDS011;36361;38.954;-9.002;2023-09-30T05:10:26;6.88;;;3.17;;
50433;SDS011;36361;38.954;-9.002;2023-09-30T05:11:27;4.63;;;2.92;;
50433;SDS011;36361;38.954;-9.002;2023-09-30T05:12:28;12.02;;;3.58;;
50433;SDS011;36361;38.954;-9.002;2023-09-30T05:13:28;5.60;;;3.08;;
50433;SDS011;36361;38.954;-9.002;2023-09-30T05:14:29;4.50;;;2.70;;
50433;SDS011;36361;38.954;-9.002;2023-09-30T05:15:30;5.82;;;2.78;;
50433;SDS011;36361;38.954;-9.002;2023-09-30T05:16:32;7.57;;;3.13;;
50433;SDS011;36361;38.954;-9.002;2023-09-30T05:17:33;5.32;;;2.85;;
50433;SDS011;36361;38.954;-9.002;2023-09-30T05:18:34;6.78;;;3.10;;
50433;SDS011;36361;38.954;-9.002;2023-09-30T05:19:35;6.30;;;3.08;;
50433;SDS011;36361;38.954;-9.002;2023-09-30T05:20:37;7.35;;;3.20;;
50433;SDS011;36361;38.954;-9.002;2023-09-30T05:21:39;4.10;;;2.50;;
50433;SDS011;36361;38.954;-9.002;2023-09-30T05:22:40;6.22;;;3.10;;
50433;SDS011;36361;38.954;-9.002;2023-09-30T05:23:45;7.18;;;3.42;;
50433;SDS011;36361;38.954;-9.002;2023-09-30T05:24:46;5.40;;;2.75;;
50433;SDS011;36361;38.954;-9.002;2023-09-30T05:25:48;7.57;;;3.17;;
50433;SDS011;36361;38.954;-9.002;2023-09-30T05:26:48;7.10;;;3.63;;
50433;SDS011;36361;38.954;-9.002;2023-09-30T05:27:49;6.20;;;2.90;;
50433;SDS011;36361;38.954;-9.002;2023-09-30T05:28:50;5.68;;;3.20;;
50433;SDS011;36361;38.954;-9.002;2023-09-30T05:29:50;6.55;;;2.92;;
50433;SDS011;36361;38.954;-9.002;2023-09-30T05:30:51;7.07;;;3.10;;
50433;SDS011;36361;38.954;-9.002;2023-09-30T05:31:53;6.65;;;3.15;;
50433;SDS011;36361;38.954;-9.002;2023-09-30T05:32:54;6.38;;;2.60;;
50433;SDS011;36361;38.954;-9.002;2023-09-30T05:33:55;5.47;;;3.15;;
50433;SDS011;36361;38.954;-9.002;2023-09-30T05:34:56;5.05;;;3.33;;
50433;SDS011;36361;38.954;-9.002;2023-09-30T05:35:58;4.13;;;2.92;;
50433;SDS011;36361;38.954;-9.002;2023-09-30T05:37:00;7.97;;;3.50;;
50433;SDS011;36361;38.954;-9.002;2023-09-30T05:38:01;6.18;;;3.33;;
50433;SDS011;36361;38.954;-9.002;2023-09-30T05:39:08;6.35;;;3.42;;
50433;SDS011;36361;38.954;-9.002;2023-09-30T05:40:13;9.43;;;4.00;;
50433;SDS011;36361;38.954;-9.002;2023-09-30T05:41:22;7.40;;;3.10;;
50433;SDS011;36361;38.954;-9.002;2023-09-30T05:42:23;7.40;;;3.50;;
50433;SDS011;36361;38.954;-9.002;2023-09-30T05:43:23;8.68;;;3.50;;
50433;SDS011;36361;38.954;-9.002;2023-09-30T05:44:24;9.20;;;3.47;;
50433;SDS011;36361;38.954;-9.002;2023-09-30T05:45:31;7.95;;;2.90;;
50433;SDS011;36361;38.954;-9.002;2023-09-30T05:46:35;9.77;;;3.35;;
50433;SDS011;36361;38.954;-9.002;2023-09-30T05:47:36;6.95;;;3.53;;
50433;SDS011;36361;38.954;-9.002;2023-09-30T05:48:37;8.00;;;3.80;;
50433;SDS011;36361;38.954;-9.002;2023-09-30T05:49:39;7.47;;;3.08;;
50433;SDS011;36361;38.954;-9.002;2023-09-30T05:50:40;5.55;;;3.65;;
50433;SDS011;36361;38.954;-9.002;2023-09-30T05:51:41;8.63;;;3.40;;
50433;SDS011;36361;38.954;-9.002;2023-09-30T05:52:42;7.55;;;3.50;;
50433;SDS011;36361;38.954;-9.002;2023-09-30T05:53:45;7.03;;;3.20;;
50433;SDS011;36361;38.954;-9.002;2023-09-30T05:54:47;6.97;;;3.22;;
50433;SDS011;36361;38.954;-9.002;2023-09-30T05:55:49;5.25;;;3.20;;
50433;SDS011;36361;38.954;-9.002;2023-09-30T05:56:51;7.40;;;3.45;;
50433;SDS011;36361;38.954;-9.002;2023-09-30T05:57:51;8.75;;;3.45;;
50433;SDS011;36361;38.954;-9.002;2023-09-30T05:58:52;7.65;;;3.40;;
50433;SDS011;36361;38.954;-9.002;2023-09-30T05:59:53;8.98;;;3.58;;
50433;SDS011;36361;38.954;-9.002;2023-09-30T06:00:54;5.22;;;3.42;;
50433;SDS011;36361;38.954;-9.002;2023-09-30T06:01:54;6.28;;;3.28;;
50433;SDS011;36361;38.954;-9.002;2023-09-30T06:02:56;6.80;;;3.50;;
50433;SDS011;36361;38.954;-9.002;2023-09-30T06:03:57;8.60;;;3.60;;
50433;SDS011;36361;38.954;-9.002;2023-09-30T06:04:59;5.45;;;2.97;;
50433;SDS011;36361;38.954;-9.002;2023-09-30T06:06:01;6.22;;;3.90;;
50433;SDS011;36361;38.954;-9.002;2023-09-30T06:07:01;6.95;;;3.58;;
50433;SDS011;36361;38.954;-9.002;2023-09-30T06:08:03;6.43;;;3.70;;